createdAt,value
2022-10-12T00:02:52.854Z,18.97
2022-10-12T00:06:03.110Z,19.08
2022-10-12T00:09:06.208Z,18.82
2022-10-12T00:12:08.738Z,18.89
2022-10-12T00:15:12.872Z,18.91
2022-10-12T00:18:15.341Z,18.83
2022-10-12T00:21:20.677Z,18.94
2022-10-12T00:24:23.174Z,18.84
2022-10-12T00:27:25.660Z,18.86
2022-10-12T00:30:29.523Z,18.96
2022-10-12T00:33:33.436Z,18.86
2022-10-12T00:36:36.570Z,19.00
2022-10-12T00:39:39.364Z,19.08
2022-10-12T00:42:41.830Z,19.14
2022-10-12T00:45:45.767Z,19.24
2022-10-12T00:48:53.610Z,18.83
2022-10-12T00:52:00.270Z,18.73
2022-10-12T00:55:03.720Z,18.38
2022-10-12T00:58:08.299Z,18.45
2022-10-12T01:01:12.358Z,18.63
2022-10-12T01:04:15.020Z,18.68
2022-10-12T01:07:17.612Z,18.88
2022-10-12T01:10:20.815Z,18.68
2022-10-12T01:13:23.315Z,18.48
2022-10-12T01:16:33.392Z,18.81
2022-10-12T01:20:10.207Z,18.95
2022-10-12T01:23:58.373Z,18.98
2022-10-12T01:27:25.161Z,19.07
2022-10-12T01:30:34.379Z,18.98
2022-10-12T01:33:39.971Z,18.88
2022-10-12T01:36:46.899Z,18.94
2022-10-12T01:39:54.206Z,18.75
2022-10-12T01:42:58.658Z,18.78
2022-10-12T01:46:24.213Z,18.82
2022-10-12T01:49:30.545Z,18.51
2022-10-12T01:52:40.392Z,18.43
2022-10-12T01:55:50.656Z,18.47
2022-10-12T01:59:02.474Z,18.55
2022-10-12T02:02:17.698Z,18.38
2022-10-12T02:05:27.496Z,18.35
2022-10-12T02:08:35.078Z,18.61
2022-10-12T02:11:42.986Z,18.70
2022-10-12T02:14:48.114Z,18.52
2022-10-12T02:17:53.566Z,18.64
2022-10-12T02:21:00.461Z,18.33
2022-10-12T02:24:07.357Z,18.48
2022-10-12T02:27:12.393Z,18.67
2022-10-12T02:30:15.005Z,18.59
2022-10-12T02:33:25.774Z,18.83
2022-10-12T02:36:35.315Z,18.84
2022-10-12T02:39:43.277Z,18.81
2022-10-12T02:43:09.955Z,18.87
2022-10-12T02:46:14.692Z,18.75
2022-10-12T02:49:19.417Z,18.59
2022-10-12T02:52:22.373Z,18.40
2022-10-12T02:55:24.822Z,18.26
2022-10-12T02:58:27.278Z,18.24
2022-10-12T03:01:29.798Z,18.35
2022-10-12T03:04:33.672Z,18.38
2022-10-12T03:07:36.495Z,18.29
2022-10-12T03:10:39.235Z,18.08
2022-10-12T03:13:41.673Z,18.09
2022-10-12T03:16:46.488Z,18.17
2022-10-12T03:19:50.250Z,18.51
2022-10-12T03:22:52.830Z,18.45
2022-10-12T03:25:55.275Z,18.46
2022-10-12T03:28:57.829Z,18.62
2022-10-12T03:32:00.325Z,18.55
2022-10-12T03:35:04.504Z,18.59
2022-10-12T03:38:07.071Z,18.28
2022-10-12T03:41:09.504Z,18.39
2022-10-12T03:44:11.955Z,18.40
2022-10-12T03:47:14.385Z,18.37
2022-10-12T03:50:18.264Z,18.70
2022-10-12T03:53:20.864Z,18.55
2022-10-12T03:56:23.293Z,18.71
2022-10-12T03:59:25.769Z,18.81
2022-10-12T04:02:28.370Z,18.76
2022-10-12T04:05:33.111Z,19.07
2022-10-12T04:08:35.652Z,18.96
2022-10-12T04:11:38.159Z,18.80
2022-10-12T04:14:40.794Z,18.71
2022-10-12T04:17:43.258Z,18.67
2022-10-12T04:20:49.950Z,18.90
2022-10-12T04:23:52.541Z,18.56
2022-10-12T04:26:54.981Z,18.48
2022-10-12T04:29:57.426Z,18.16
2022-10-12T04:33:00.212Z,18.28
2022-10-12T04:36:04.114Z,18.32
2022-10-12T04:39:06.579Z,18.27
2022-10-12T04:42:09.163Z,18.29
2022-10-12T04:45:11.897Z,18.17
2022-10-12T04:48:14.331Z,18.04
2022-10-12T04:51:18.101Z,18.23
2022-10-12T04:54:20.544Z,18.07
2022-10-12T04:57:23.021Z,18.00
2022-10-12T05:00:25.452Z,18.20
2022-10-12T05:03:27.926Z,18.21
2022-10-12T05:06:31.833Z,18.45
2022-10-12T05:09:34.320Z,18.40
2022-10-12T05:12:37.022Z,18.58
2022-10-12T05:15:39.662Z,18.66
2022-10-12T05:18:42.118Z,18.42
2022-10-12T05:21:45.881Z,18.33
2022-10-12T05:24:53.674Z,18.27
2022-10-12T05:27:57.097Z,18.20
2022-10-12T05:30:59.523Z,18.17
2022-10-12T05:34:01.961Z,18.25
2022-10-12T05:37:05.890Z,18.47
2022-10-12T05:40:09.121Z,18.52
2022-10-12T05:43:11.609Z,18.45
2022-10-12T05:46:14.669Z,18.60
2022-10-12T05:49:17.186Z,18.64
2022-10-12T05:52:21.017Z,18.76
2022-10-12T05:55:23.459Z,18.38
2022-10-12T05:58:27.003Z,18.37
2022-10-12T06:01:29.460Z,18.52
2022-10-12T06:04:31.948Z,18.40
2022-10-12T06:07:35.748Z,18.51
2022-10-12T06:10:38.899Z,18.32
2022-10-12T06:13:41.402Z,18.41
2022-10-12T06:16:43.879Z,18.58
2022-10-12T06:19:46.359Z,18.81
2022-10-12T06:22:50.125Z,18.94
2022-10-12T06:25:53.253Z,18.88
2022-10-12T06:28:55.809Z,18.86
2022-10-12T06:31:58.349Z,18.71
2022-10-12T06:35:00.772Z,18.68
2022-10-12T06:38:04.896Z,18.81
2022-10-12T06:41:07.359Z,18.80
2022-10-12T06:44:09.938Z,19.11
2022-10-12T06:47:12.351Z,19.05
2022-10-12T06:50:14.846Z,19.17
2022-10-12T06:53:19.443Z,19.63
2022-10-12T06:56:21.921Z,19.32
2022-10-12T06:59:24.865Z,19.60
2022-10-12T07:02:27.394Z,19.60
2022-10-12T07:05:30.235Z,19.73
2022-10-12T07:08:34.065Z,20.05
2022-10-12T07:11:36.560Z,19.97
2022-10-12T07:14:39.004Z,20.06
2022-10-12T07:17:41.499Z,20.00
2022-10-12T07:20:43.984Z,20.08
2022-10-12T07:23:47.742Z,20.37
2022-10-12T07:26:50.488Z,20.38
2022-10-12T07:29:52.971Z,20.43
2022-10-12T07:32:55.452Z,20.49
2022-10-12T07:36:13.200Z,20.28
2022-10-12T07:39:18.245Z,20.45
2022-10-12T07:42:20.646Z,20.53
2022-10-12T07:45:23.861Z,20.66
2022-10-12T07:48:26.312Z,20.53
2022-10-12T07:51:28.756Z,20.56
2022-10-12T07:54:32.935Z,20.99
2022-10-12T07:57:35.543Z,21.03
2022-10-12T08:00:38.037Z,21.11
2022-10-12T08:03:40.600Z,21.18
2022-10-12T08:06:44.551Z,21.77
2022-10-12T08:09:49.457Z,22.00
2022-10-12T08:12:52.343Z,21.86
2022-10-12T08:15:54.857Z,22.10
2022-10-12T08:18:57.292Z,22.29
2022-10-12T08:21:59.721Z,22.60
2022-10-12T08:25:05.414Z,23.32
2022-10-12T08:28:07.946Z,22.98
2022-10-12T08:31:12.198Z,23.19
2022-10-12T08:34:14.854Z,23.12
2022-10-12T08:37:17.281Z,23.26
2022-10-12T08:40:29.807Z,24.11
2022-10-12T08:43:45.180Z,24.11
2022-10-12T08:46:48.355Z,24.32
2022-10-12T08:49:51.907Z,24.54
2022-10-12T08:52:59.176Z,24.69
2022-10-12T08:56:02.986Z,24.91
2022-10-12T08:59:05.469Z,24.94
2022-10-12T09:02:26.370Z,25.18
2022-10-12T09:05:34.724Z,25.04
2022-10-12T09:08:51.214Z,25.19
2022-10-12T09:12:05.219Z,25.36
2022-10-12T09:15:15.680Z,25.77
2022-10-12T09:18:22.365Z,25.98
2022-10-12T09:21:27.961Z,26.13
2022-10-12T09:24:35.911Z,27.38
2022-10-12T09:27:45.091Z,26.90
2022-10-12T09:31:02.842Z,27.10
2022-10-12T09:34:07.356Z,27.75
2022-10-12T09:37:18.159Z,27.54
2022-10-12T09:40:23.973Z,27.54
2022-10-12T09:43:28.090Z,27.68
2022-10-12T09:46:40.205Z,28.35
2022-10-12T09:49:43.420Z,28.12
2022-10-12T09:52:46.489Z,28.25
2022-10-12T09:55:58.874Z,28.50
2022-10-12T09:59:05.135Z,27.87
2022-10-12T10:02:16.624Z,27.86
2022-10-12T10:05:25.971Z,27.47
2022-10-12T10:08:28.472Z,27.29
2022-10-12T10:11:31.999Z,27.65
2022-10-12T10:14:36.911Z,26.73
2022-10-12T10:17:39.923Z,26.68
2022-10-12T10:20:45.819Z,27.62
2022-10-12T10:23:52.841Z,27.64
2022-10-12T10:26:57.825Z,27.31
2022-10-12T10:30:40.573Z,27.52
2022-10-12T10:33:45.059Z,27.61
2022-10-12T10:36:49.559Z,27.36
2022-10-12T10:39:55.555Z,27.30
2022-10-12T10:43:03.728Z,27.41
2022-10-12T10:46:08.391Z,27.12
2022-10-12T10:49:26.056Z,27.08
2022-10-12T10:52:31.694Z,27.00
2022-10-12T10:55:45.847Z,27.00
2022-10-12T10:58:51.992Z,26.90
2022-10-12T11:01:58.580Z,27.14
2022-10-12T11:05:08.870Z,27.11
2022-10-12T11:08:16.854Z,27.58
2022-10-12T11:11:23.201Z,26.55
2022-10-12T11:14:32.035Z,27.00
2022-10-12T11:17:38.985Z,27.61
2022-10-12T11:20:49.636Z,27.05
2022-10-12T11:23:55.623Z,26.04
2022-10-12T11:27:04.094Z,26.09
2022-10-12T11:30:14.429Z,26.83
2022-10-12T11:33:24.145Z,25.83
2022-10-12T11:36:30.689Z,25.61
2022-10-12T11:39:39.170Z,25.48
2022-10-12T11:42:43.729Z,25.19
2022-10-12T11:45:50.466Z,25.06
2022-10-12T11:49:00.371Z,25.52
2022-10-12T11:52:06.938Z,27.11
2022-10-12T11:55:28.565Z,27.21
2022-10-12T11:58:55.971Z,27.15
2022-10-12T12:02:04.777Z,27.25
2022-10-12T12:05:16.310Z,27.80
2022-10-12T12:08:24.136Z,26.73
2022-10-12T12:11:28.800Z,26.03
2022-10-12T12:14:48.887Z,25.69
2022-10-12T12:18:14.380Z,26.22
2022-10-12T12:21:18.136Z,26.26
2022-10-12T12:24:20.916Z,25.65
2022-10-12T12:27:29.749Z,25.19
2022-10-12T12:30:37.672Z,25.32
2022-10-12T12:33:43.421Z,25.94
2022-10-12T12:36:50.977Z,26.47
2022-10-12T12:39:56.150Z,26.43
2022-10-12T12:43:22.403Z,25.65
2022-10-12T12:46:47.308Z,24.99
2022-10-12T12:49:53.652Z,24.98
2022-10-12T12:53:05.489Z,24.78
2022-10-12T12:56:17.489Z,24.70
2022-10-12T12:59:46.889Z,24.93
2022-10-12T13:03:20.137Z,24.90
2022-10-12T13:07:06.982Z,24.81
2022-10-12T13:10:33.114Z,24.63
2022-10-12T13:13:54.693Z,24.69
2022-10-12T13:20:38.396Z,24.34
2022-10-12T13:23:41.343Z,24.09
2022-10-12T13:26:47.701Z,24.44
2022-10-12T13:29:56.267Z,24.93
2022-10-12T13:33:04.540Z,25.84
2022-10-12T13:36:10.210Z,25.83
2022-10-12T13:39:16.430Z,25.60
2022-10-12T13:42:27.603Z,24.99
2022-10-12T13:45:30.037Z,24.83
2022-10-12T13:48:59.242Z,24.83
2022-10-12T13:51:57.637Z,24.77
2022-10-12T13:55:01.149Z,24.80
2022-10-12T13:58:05.223Z,25.03
2022-10-12T14:01:10.817Z,25.03
2022-10-12T14:04:13.339Z,24.59
2022-10-12T14:07:20.856Z,24.83
2022-10-12T14:10:27.202Z,24.91
2022-10-12T14:13:33.112Z,24.84
2022-10-12T14:16:35.587Z,25.02
2022-10-12T14:19:45.123Z,25.42
2022-10-12T14:22:49.707Z,24.95
2022-10-12T14:25:54.209Z,24.53
2022-10-12T14:29:00.285Z,24.25
2022-10-12T14:32:04.681Z,24.42
2022-10-12T14:35:26.069Z,25.27
2022-10-12T14:38:39.073Z,25.71
2022-10-12T14:41:49.953Z,25.47
2022-10-12T14:44:54.286Z,25.93
2022-10-12T14:47:57.429Z,24.76
2022-10-12T14:50:59.928Z,24.52
2022-10-12T14:54:04.173Z,24.42
2022-10-12T14:57:14.177Z,25.15
2022-10-12T15:00:20.437Z,24.80
2022-10-12T15:03:22.903Z,24.11
2022-10-12T15:06:25.424Z,24.13
2022-10-12T15:09:27.899Z,23.95
2022-10-12T15:12:32.979Z,23.54
2022-10-12T15:15:42.190Z,23.54
2022-10-12T15:18:44.634Z,23.69
2022-10-12T15:21:47.778Z,23.77
2022-10-12T15:24:52.117Z,24.04
2022-10-12T15:27:54.607Z,23.69
2022-10-12T15:34:21.528Z,23.46
2022-10-12T15:37:27.714Z,22.70
2022-10-12T15:40:32.446Z,22.90
2022-10-12T15:43:36.944Z,23.19
2022-10-12T15:46:44.628Z,22.86
2022-10-12T15:49:47.055Z,22.58
2022-10-12T15:52:50.067Z,22.69
2022-10-12T15:55:53.077Z,22.08
2022-10-12T15:58:55.577Z,21.94
2022-10-12T16:01:59.409Z,21.69
2022-10-12T16:05:01.931Z,21.47
2022-10-12T16:08:06.862Z,21.50
2022-10-12T16:11:12.681Z,21.22
2022-10-12T16:14:15.589Z,20.87
2022-10-12T16:17:19.364Z,20.54
2022-10-12T16:20:22.665Z,20.22
2022-10-12T16:23:29.658Z,20.34
2022-10-12T16:26:32.142Z,20.00
2022-10-12T16:29:34.605Z,19.85
2022-10-12T16:32:38.405Z,19.91
2022-10-12T16:35:41.054Z,19.50
2022-10-12T16:38:44.323Z,19.32
2022-10-12T16:41:46.787Z,19.12
2022-10-12T16:44:49.489Z,19.06
2022-10-12T16:47:54.063Z,18.97
2022-10-12T16:50:56.513Z,18.82
2022-10-12T16:53:58.935Z,18.75
2022-10-12T16:57:01.389Z,18.53
2022-10-12T17:00:04.929Z,18.52
2022-10-12T17:03:09.295Z,18.46
2022-10-12T17:06:11.960Z,18.15
2022-10-12T17:09:14.378Z,18.03
2022-10-12T17:12:17.246Z,18.09
2022-10-12T17:15:20.222Z,17.94
2022-10-12T17:18:23.990Z,18.13
2022-10-12T17:21:26.491Z,17.95
2022-10-12T17:24:31.136Z,18.12
2022-10-12T17:27:33.577Z,17.77
2022-10-12T17:30:38.338Z,17.89
2022-10-12T17:33:42.170Z,17.95
2022-10-12T17:36:44.698Z,17.68
2022-10-12T17:39:48.310Z,17.62
2022-10-12T17:42:50.737Z,17.33
2022-10-12T17:45:53.190Z,17.37
2022-10-12T17:48:59.208Z,17.83
2022-10-12T17:52:01.656Z,17.24
2022-10-12T17:55:04.444Z,17.31
2022-10-12T17:58:06.906Z,17.27
2022-10-12T18:01:11.481Z,17.35
2022-10-12T18:04:15.329Z,17.38
2022-10-12T18:07:18.116Z,17.07
2022-10-12T18:10:23.459Z,17.15
2022-10-12T18:13:29.027Z,17.38
2022-10-12T18:16:34.092Z,17.21
2022-10-12T18:19:38.002Z,16.99
2022-10-12T18:22:40.634Z,16.70
2022-10-12T18:25:44.001Z,16.82
2022-10-12T18:28:46.650Z,16.75
2022-10-12T18:31:49.233Z,16.75
2022-10-12T18:34:53.616Z,16.73
2022-10-12T18:37:56.470Z,16.79
2022-10-12T18:41:03.735Z,16.69
2022-10-12T18:44:06.213Z,16.09
2022-10-12T18:47:08.817Z,16.02
2022-10-12T18:50:12.687Z,16.09
2022-10-12T18:53:15.277Z,16.04
2022-10-12T18:56:18.267Z,15.79
2022-10-12T18:59:20.805Z,15.76
2022-10-12T19:02:23.527Z,15.71
2022-10-12T19:05:27.350Z,15.74
2022-10-12T19:08:29.925Z,15.83
2022-10-12T19:11:32.965Z,15.92
2022-10-12T19:14:35.498Z,15.77
2022-10-12T19:17:37.941Z,15.69
2022-10-12T19:20:41.728Z,15.88
2022-10-12T19:23:45.075Z,15.16
2022-10-12T19:26:48.692Z,15.41
2022-10-12T19:29:51.406Z,14.95
2022-10-12T19:32:53.917Z,15.09
2022-10-12T19:35:57.781Z,15.27
2022-10-12T19:39:02.599Z,14.86
2022-10-12T19:42:05.352Z,14.94
2022-10-12T19:45:09.023Z,15.21
2022-10-12T19:48:11.538Z,14.89
2022-10-12T19:51:15.533Z,14.96
2022-10-12T19:54:18.098Z,14.84
2022-10-12T19:57:20.605Z,14.75
2022-10-12T20:00:23.110Z,14.49
2022-10-12T20:03:25.627Z,14.43
2022-10-12T20:06:31.019Z,14.54
2022-10-12T20:09:33.579Z,14.45
2022-10-12T20:12:36.162Z,14.37
2022-10-12T20:15:38.812Z,14.11
2022-10-12T20:18:42.144Z,14.42
2022-10-12T20:21:46.010Z,14.44
2022-10-12T20:24:49.067Z,14.30
2022-10-12T20:27:51.539Z,14.18
2022-10-12T20:30:59.174Z,14.34
2022-10-12T20:34:01.674Z,14.21
2022-10-12T20:37:05.553Z,14.74
2022-10-12T20:40:09.217Z,14.24
2022-10-12T20:43:11.778Z,14.07
2022-10-12T20:46:16.130Z,14.31
2022-10-12T20:49:18.662Z,13.96
2022-10-12T20:52:22.614Z,14.23
2022-10-12T20:55:25.221Z,14.11
2022-10-12T20:58:28.409Z,14.08
2022-10-12T21:01:30.887Z,13.99
2022-10-12T21:04:38.160Z,13.99
2022-10-12T21:07:42.265Z,14.16
2022-10-12T21:10:47.212Z,14.13
2022-10-12T21:13:50.113Z,14.05
2022-10-12T21:16:52.695Z,14.06
2022-10-12T21:19:55.183Z,14.22
2022-10-12T21:22:58.969Z,14.24
2022-10-12T21:26:09.918Z,14.38
2022-10-12T21:29:12.669Z,14.11
2022-10-12T21:32:15.646Z,14.25
2022-10-12T21:35:18.294Z,14.09
2022-10-12T21:38:22.299Z,14.49
2022-10-12T21:41:26.234Z,14.22
2022-10-12T21:44:28.732Z,14.19
2022-10-12T21:47:31.230Z,14.25
2022-10-12T21:50:34.780Z,14.29
2022-10-12T21:53:40.038Z,14.24
2022-10-12T21:56:42.961Z,13.99
2022-10-12T21:59:45.497Z,14.05
2022-10-12T22:02:49.403Z,14.21
2022-10-12T22:05:52.001Z,14.22
2022-10-12T22:08:57.475Z,14.33
2022-10-12T22:11:59.939Z,14.05
2022-10-12T22:15:02.603Z,14.29
2022-10-12T22:18:05.302Z,14.27
2022-10-12T22:21:11.170Z,14.42
2022-10-12T22:24:15.331Z,14.35
2022-10-12T22:27:17.781Z,14.09
2022-10-12T22:30:20.239Z,13.98
2022-10-12T22:33:22.957Z,13.66
2022-10-12T22:36:25.896Z,13.56
2022-10-12T22:39:29.726Z,13.66
2022-10-12T22:42:32.306Z,13.69
2022-10-12T22:45:34.757Z,13.75
2022-10-12T22:48:38.125Z,13.89
2022-10-12T22:51:40.633Z,14.02
2022-10-12T22:54:44.622Z,13.97
2022-10-12T22:57:47.077Z,13.83
2022-10-12T23:00:49.553Z,13.93
2022-10-12T23:03:52.470Z,14.09
2022-10-12T23:06:54.904Z,13.87
2022-10-12T23:09:58.858Z,14.06
2022-10-12T23:13:01.261Z,13.71
2022-10-12T23:16:04.785Z,13.79
2022-10-12T23:19:07.351Z,13.77
2022-10-12T23:22:09.771Z,13.85
2022-10-12T23:25:13.595Z,14.17
2022-10-12T23:28:16.050Z,13.95
2022-10-12T23:31:20.705Z,14.01
2022-10-12T23:34:23.154Z,14.05
2022-10-12T23:37:25.874Z,13.90
2022-10-12T23:40:29.974Z,13.99
2022-10-12T23:43:33.044Z,13.91
2022-10-12T23:46:35.641Z,14.04
2022-10-12T23:49:38.246Z,13.72
2022-10-12T23:52:40.707Z,13.91
2022-10-12T23:55:44.661Z,14.15
2022-10-12T23:58:47.137Z,14.09
